Aviation Digital Data Service (ADDS)

Output produced by METARs form (0425 UTC 19 August 2019)
found at http://www.aviationweather.gov/metar/data/
 
METAR text: UUDD 190400Z 19002MPS 170V230 9999 FEW010 BKN021 16/14 Q1015 R88/70D NOSIG
Conditions at: UUDD (MOSCOW/DOMODEDOV, RU) observed 0400 UTC 19 August 2019
Temperature: 16.0°C (61°F)
Dewpoint: 14.0°C (57°F) [RH = 88%]
Pressure (altimeter): 29.97 inches Hg (1015.0 mb)
Winds: from the S (190 degrees) at 5 MPH (4 knots; 2.1 m/s)
Visibility: 6 or more miles (10+ km)
Ceiling: 2100 feet AGL
Clouds: few clouds at 1000 feet AGL
broken clouds at 2100 feet AGL
Weather: no significant weather observed at this time

METAR text: UUDD 190330Z 26003MPS 9999 BKN011 16/14 Q1014 R88/70D NOSIG
Conditions at: UUDD (MOSCOW/DOMODEDOV, RU) observed 0330 UTC 19 August 2019
Temperature: 16.0°C (61°F)
Dewpoint: 14.0°C (57°F) [RH = 88%]
Pressure (altimeter): 29.94 inches Hg (1014.0 mb)
Winds: from the W (260 degrees) at 7 MPH (6 knots; 3.1 m/s)
Visibility: 6 or more miles (10+ km)
Ceiling: 1100 feet AGL
Clouds: broken clouds at 1100 feet AGL
Weather: no significant weather observed at this time

METAR text: UUDD 190300Z 24002MPS 180V270 9999 SCT008 BKN022 15/13 Q1014 R14R/CLRD70 NOSIG
Conditions at: UUDD (MOSCOW/DOMODEDOV, RU) observed 0300 UTC 19 August 2019
Temperature: 15.0°C (59°F)
Dewpoint: 13.0°C (55°F) [RH = 88%]
Pressure (altimeter): 29.94 inches Hg (1014.0 mb)
Winds: from the WSW (240 degrees) at 5 MPH (4 knots; 2.1 m/s)
Visibility: 6 or more miles (10+ km)
Ceiling: 2200 feet AGL
Clouds: scattered clouds at 800 feet AGL
broken clouds at 2200 feet AGL
Weather: no significant weather observed at this time

METAR text: UUDD 190230Z 27002MPS 9999 SCT010 BKN022 15/13 Q1014 R14R/CLRD70 NOSIG
Conditions at: UUDD (MOSCOW/DOMODEDOV, RU) observed 0230 UTC 19 August 2019
Temperature: 15.0°C (59°F)
Dewpoint: 13.0°C (55°F) [RH = 88%]
Pressure (altimeter): 29.94 inches Hg (1014.0 mb)
Winds: from the W (270 degrees) at 5 MPH (4 knots; 2.1 m/s)
Visibility: 6 or more miles (10+ km)
Ceiling: 2200 feet AGL
Clouds: scattered clouds at 1000 feet AGL
broken clouds at 2200 feet AGL
Weather: no significant weather observed at this time

METAR text: UUDD 190200Z 24004MPS 190V280 9999 BKN009 15/13 Q1014 R14L/190060 NOSIG
Conditions at: UUDD (MOSCOW/DOMODEDOV, RU) observed 0200 UTC 19 August 2019
Temperature: 15.0°C (59°F)
Dewpoint: 13.0°C (55°F) [RH = 88%]
Pressure (altimeter): 29.94 inches Hg (1014.0 mb)
Winds: from the WSW (240 degrees) at 9 MPH (8 knots; 4.1 m/s)
Visibility: 6 or more miles (10+ km)
Ceiling: 900 feet AGL
Clouds: broken clouds at 900 feet AGL
Weather: no significant weather observed at this time

METAR text: UUDD 190130Z 24002MPS 9999 SCT010 16/14 Q1013 R14R/CLRD70 NOSIG
Conditions at: UUDD (MOSCOW/DOMODEDOV, RU) observed 0130 UTC 19 August 2019
Temperature: 16.0°C (61°F)
Dewpoint: 14.0°C (57°F) [RH = 88%]
Pressure (altimeter): 29.91 inches Hg (1013.0 mb)
Winds: from the WSW (240 degrees) at 5 MPH (4 knots; 2.1 m/s)
Visibility: 6 or more miles (10+ km)
Ceiling: at least 12,000 feet AGL
Clouds: scattered clouds at 1000 feet AGL
Weather: no significant weather observed at this time

METAR text: UUDD 190100Z 25003MPS 210V280 9999 -RA SCT008 16/14 Q1013 R14R/CLRD70 NOSIG
Conditions at: UUDD (MOSCOW/DOMODEDOV, RU) observed 0100 UTC 19 August 2019
Temperature: 16.0°C (61°F)
Dewpoint: 14.0°C (57°F) [RH = 88%]
Pressure (altimeter): 29.91 inches Hg (1013.0 mb)
Winds: from the WSW (250 degrees) at 7 MPH (6 knots; 3.1 m/s)
Visibility: 6 or more miles (10+ km)
Ceiling: at least 12,000 feet AGL
Clouds: scattered clouds at 800 feet AGL
Weather: -RA  (light rain)

METAR text: UUDD 190030Z 24002MPS 180V270 9999 OVC009 16/14 Q1013 R14R/CLRD70 NOSIG
Conditions at: UUDD (MOSCOW/DOMODEDOV, RU) observed 0030 UTC 19 August 2019
Temperature: 16.0°C (61°F)
Dewpoint: 14.0°C (57°F) [RH = 88%]
Pressure (altimeter): 29.91 inches Hg (1013.0 mb)
Winds: from the WSW (240 degrees) at 5 MPH (4 knots; 2.1 m/s)
Visibility: 6 or more miles (10+ km)
Ceiling: 900 feet AGL
Clouds: overcast cloud deck at 900 feet AGL
Weather: no significant weather observed at this time

METAR text: UUDD 190000Z 19002MPS 160V240 9999 -DZ OVC007 16/14 Q1013 R14R/CLRD70 NOSIG
Conditions at: UUDD (MOSCOW/DOMODEDOV, RU) observed 0000 UTC 19 August 2019
Temperature: 16.0°C (61°F)
Dewpoint: 14.0°C (57°F) [RH = 88%]
Pressure (altimeter): 29.91 inches Hg (1013.0 mb)
Winds: from the S (190 degrees) at 5 MPH (4 knots; 2.1 m/s)
Visibility: 6 or more miles (10+ km)
Ceiling: 700 feet AGL
Clouds: overcast cloud deck at 700 feet AGL
Weather: -DZ  (light drizzle)

METAR text: UUDD 182330Z 18002MPS 9999 -DZ OVC007 16/14 Q1013 R14R/CLRD70 NOSIG
Conditions at: UUDD (MOSCOW/DOMODEDOV, RU) observed 2330 UTC 18 August 2019
Temperature: 16.0°C (61°F)
Dewpoint: 14.0°C (57°F) [RH = 88%]
Pressure (altimeter): 29.91 inches Hg (1013.0 mb)
Winds: from the S (180 degrees) at 5 MPH (4 knots; 2.1 m/s)
Visibility: 6 or more miles (10+ km)
Ceiling: 700 feet AGL
Clouds: overcast cloud deck at 700 feet AGL
Weather: -DZ  (light drizzle)

METAR text: UUDD 182300Z 19002MPS 160V220 9999 SCT008 BKN020 16/14 Q1013 R14R/CLRD70 NOSIG
Conditions at: UUDD (MOSCOW/DOMODEDOV, RU) observed 2300 UTC 18 August 2019
Temperature: 16.0°C (61°F)
Dewpoint: 14.0°C (57°F) [RH = 88%]
Pressure (altimeter): 29.91 inches Hg (1013.0 mb)
Winds: from the S (190 degrees) at 5 MPH (4 knots; 2.1 m/s)
Visibility: 6 or more miles (10+ km)
Ceiling: 2000 feet AGL
Clouds: scattered clouds at 800 feet AGL
broken clouds at 2000 feet AGL
Weather: no significant weather observed at this time

METAR text: UUDD 182230Z 18003MPS 9999 SCT009 BKN020 16/14 Q1013 R14R/CLRD70 NOSIG
Conditions at: UUDD (MOSCOW/DOMODEDOV, RU) observed 2230 UTC 18 August 2019
Temperature: 16.0°C (61°F)
Dewpoint: 14.0°C (57°F) [RH = 88%]
Pressure (altimeter): 29.91 inches Hg (1013.0 mb)
Winds: from the S (180 degrees) at 7 MPH (6 knots; 3.1 m/s)
Visibility: 6 or more miles (10+ km)
Ceiling: 2000 feet AGL
Clouds: scattered clouds at 900 feet AGL
broken clouds at 2000 feet AGL
Weather: no significant weather observed at this time

METAR text: UUDD 182200Z 19003MPS 160V220 9999 SCT008 BKN033 16/14 Q1012 R88/70D NOSIG
Conditions at: UUDD (MOSCOW/DOMODEDOV, RU) observed 2200 UTC 18 August 2019
Temperature: 16.0°C (61°F)
Dewpoint: 14.0°C (57°F) [RH = 88%]
Pressure (altimeter): 29.88 inches Hg (1012.0 mb)
Winds: from the S (190 degrees) at 7 MPH (6 knots; 3.1 m/s)
Visibility: 6 or more miles (10+ km)
Ceiling: 3300 feet AGL
Clouds: scattered clouds at 800 feet AGL
broken clouds at 3300 feet AGL
Weather: no significant weather observed at this time

METAR text: UUDD 182130Z 18003MPS 160V240 9999 SCT009 BKN033 16/14 Q1012 R88/70D NOSIG
Conditions at: UUDD (MOSCOW/DOMODEDOV, RU) observed 2130 UTC 18 August 2019
Temperature: 16.0°C (61°F)
Dewpoint: 14.0°C (57°F) [RH = 88%]
Pressure (altimeter): 29.88 inches Hg (1012.0 mb)
Winds: from the S (180 degrees) at 7 MPH (6 knots; 3.1 m/s)
Visibility: 6 or more miles (10+ km)
Ceiling: 3300 feet AGL
Clouds: scattered clouds at 900 feet AGL
broken clouds at 3300 feet AGL
Weather: no significant weather observed at this time

METAR text: UUDD 182100Z 20003MPS 170V240 9999 FEW008 BKN026CB 17/14 Q1012 R88/70D NOSIG
Conditions at: UUDD (MOSCOW/DOMODEDOV, RU) observed 2100 UTC 18 August 2019
Temperature: 17.0°C (63°F)
Dewpoint: 14.0°C (57°F) [RH = 82%]
Pressure (altimeter): 29.88 inches Hg (1012.0 mb)
Winds: from the SSW (200 degrees) at 7 MPH (6 knots; 3.1 m/s)
Visibility: 6 or more miles (10+ km)
Ceiling: 2600 feet AGL
Clouds: few clouds at 800 feet AGL
broken clouds at 2600 feet AGL
Weather: no significant weather observed at this time

METAR text: UUDD 182030Z 21004MPS 9999 SCT011 BKN036 17/14 Q1012 R88/CLRD70 NOSIG
Conditions at: UUDD (MOSCOW/DOMODEDOV, RU) observed 2030 UTC 18 August 2019
Temperature: 17.0°C (63°F)
Dewpoint: 14.0°C (57°F) [RH = 82%]
Pressure (altimeter): 29.88 inches Hg (1012.0 mb)
Winds: from the SSW (210 degrees) at 9 MPH (8 knots; 4.1 m/s)
Visibility: 6 or more miles (10+ km)
Ceiling: 3600 feet AGL
Clouds: scattered clouds at 1100 feet AGL
broken clouds at 3600 feet AGL
Weather: no significant weather observed at this time

METAR text: UUDD 182000Z 19003MPS 9999 FEW010 BKN033 17/14 Q1012 R88/CLRD70 NOSIG
Conditions at: UUDD (MOSCOW/DOMODEDOV, RU) observed 2000 UTC 18 August 2019
Temperature: 17.0°C (63°F)
Dewpoint: 14.0°C (57°F) [RH = 82%]
Pressure (altimeter): 29.88 inches Hg (1012.0 mb)
Winds: from the S (190 degrees) at 7 MPH (6 knots; 3.1 m/s)
Visibility: 6 or more miles (10+ km)
Ceiling: 3300 feet AGL
Clouds: few clouds at 1000 feet AGL
broken clouds at 3300 feet AGL
Weather: no significant weather observed at this time

METAR text: UUDD 181930Z 18003MPS 160V220 9999 BKN020 16/14 Q1012 R88/70D NOSIG
Conditions at: UUDD (MOSCOW/DOMODEDOV, RU) observed 1930 UTC 18 August 2019
Temperature: 16.0°C (61°F)
Dewpoint: 14.0°C (57°F) [RH = 88%]
Pressure (altimeter): 29.88 inches Hg (1012.0 mb)
Winds: from the S (180 degrees) at 7 MPH (6 knots; 3.1 m/s)
Visibility: 6 or more miles (10+ km)
Ceiling: 2000 feet AGL
Clouds: broken clouds at 2000 feet AGL
Weather: no significant weather observed at this time

METAR text: UUDD 181900Z 18003MPS 9999 BKN015 16/14 Q1012 R88/CLRD70 NOSIG
Conditions at: UUDD (MOSCOW/DOMODEDOV, RU) observed 1900 UTC 18 August 2019
Temperature: 16.0°C (61°F)
Dewpoint: 14.0°C (57°F) [RH = 88%]
Pressure (altimeter): 29.88 inches Hg (1012.0 mb)
Winds: from the S (180 degrees) at 7 MPH (6 knots; 3.1 m/s)
Visibility: 6 or more miles (10+ km)
Ceiling: 1500 feet AGL
Clouds: broken clouds at 1500 feet AGL
Weather: no significant weather observed at this time

METAR text: UUDD 181830Z 18003MPS 9999 SCT016 16/13 Q1012 R88/CLRD70 NOSIG
Conditions at: UUDD (MOSCOW/DOMODEDOV, RU) observed 1830 UTC 18 August 2019
Temperature: 16.0°C (61°F)
Dewpoint: 13.0°C (55°F) [RH = 82%]
Pressure (altimeter): 29.88 inches Hg (1012.0 mb)
Winds: from the S (180 degrees) at 7 MPH (6 knots; 3.1 m/s)
Visibility: 6 or more miles (10+ km)
Ceiling: at least 12,000 feet AGL
Clouds: scattered clouds at 1600 feet AGL
Weather: no significant weather observed at this time

METAR text: UUDD 181800Z 19003MPS 170V230 9999 BKN043 17/14 Q1012 R88/CLRD70 NOSIG
Conditions at: UUDD (MOSCOW/DOMODEDOV, RU) observed 1800 UTC 18 August 2019
Temperature: 17.0°C (63°F)
Dewpoint: 14.0°C (57°F) [RH = 82%]
Pressure (altimeter): 29.88 inches Hg (1012.0 mb)
Winds: from the S (190 degrees) at 7 MPH (6 knots; 3.1 m/s)
Visibility: 6 or more miles (10+ km)
Ceiling: 4300 feet AGL
Clouds: broken clouds at 4300 feet AGL
Weather: no significant weather observed at this time

METAR text: UUDD 181730Z 18003MPS CAVOK 17/14 Q1012 R88/70D NOSIG
Conditions at: UUDD (MOSCOW/DOMODEDOV, RU) observed 1730 UTC 18 August 2019
Temperature: 17.0°C (63°F)
Dewpoint: 14.0°C (57°F) [RH = 82%]
Pressure (altimeter): 29.88 inches Hg (1012.0 mb)
Winds: from the S (180 degrees) at 7 MPH (6 knots; 3.1 m/s)
Visibility: 6 or more miles (10+ km)
Ceiling: ceiling and visibility are OK
Clouds: unknown
Weather: no significant weather observed at this time

METAR text: UUDD 181700Z 18004MPS CAVOK 18/14 Q1012 R88/CLRD70 NOSIG
Conditions at: UUDD (MOSCOW/DOMODEDOV, RU) observed 1700 UTC 18 August 2019
Temperature: 18.0°C (64°F)
Dewpoint: 14.0°C (57°F) [RH = 77%]
Pressure (altimeter): 29.88 inches Hg (1012.0 mb)
Winds: from the S (180 degrees) at 9 MPH (8 knots; 4.1 m/s)
Visibility: 6 or more miles (10+ km)
Ceiling: ceiling and visibility are OK
Clouds: unknown
Weather: no significant weather observed at this time

METAR text: UUDD 181630Z 17004MPS 9999 SCT046 18/14 Q1012 R88/70D NOSIG
Conditions at: UUDD (MOSCOW/DOMODEDOV, RU) observed 1630 UTC 18 August 2019
Temperature: 18.0°C (64°F)
Dewpoint: 14.0°C (57°F) [RH = 77%]
Pressure (altimeter): 29.88 inches Hg (1012.0 mb)
Winds: from the S (170 degrees) at 9 MPH (8 knots; 4.1 m/s)
Visibility: 6 or more miles (10+ km)
Ceiling: at least 12,000 feet AGL
Clouds: scattered clouds at 4600 feet AGL
Weather: no significant weather observed at this time

METAR text: UUDD 181600Z 20005MPS 160V220 9999 BKN018CB 19/14 Q1012 R88/70D NOSIG
Conditions at: UUDD (MOSCOW/DOMODEDOV, RU) observed 1600 UTC 18 August 2019
Temperature: 19.0°C (66°F)
Dewpoint: 14.0°C (57°F) [RH = 73%]
Pressure (altimeter): 29.88 inches Hg (1012.0 mb)
Winds: from the SSW (200 degrees) at 12 MPH (10 knots; 5.1 m/s)
Visibility: 6 or more miles (10+ km)
Ceiling: 1800 feet AGL
Clouds: broken clouds at 1800 feet AGL
Weather: no significant weather observed at this time

METAR text: UUDD 181530Z 18005MPS 9999 BKN022 19/15 Q1011 R88/70D NOSIG
Conditions at: UUDD (MOSCOW/DOMODEDOV, RU) observed 1530 UTC 18 August 2019
Temperature: 19.0°C (66°F)
Dewpoint: 15.0°C (59°F) [RH = 78%]
Pressure (altimeter): 29.85 inches Hg (1011.0 mb)
Winds: from the S (180 degrees) at 12 MPH (10 knots; 5.1 m/s)
Visibility: 6 or more miles (10+ km)
Ceiling: 2200 feet AGL
Clouds: broken clouds at 2200 feet AGL
Weather: no significant weather observed at this time

METAR text: UUDD 181500Z 19004MPS 9999 SCT023 20/15 Q1011 R88/CLRD70 NOSIG
Conditions at: UUDD (MOSCOW/DOMODEDOV, RU) observed 1500 UTC 18 August 2019
Temperature: 20.0°C (68°F)
Dewpoint: 15.0°C (59°F) [RH = 73%]
Pressure (altimeter): 29.85 inches Hg (1011.0 mb)
Winds: from the S (190 degrees) at 9 MPH (8 knots; 4.1 m/s)
Visibility: 6 or more miles (10+ km)
Ceiling: at least 12,000 feet AGL
Clouds: scattered clouds at 2300 feet AGL
Weather: no significant weather observed at this time

METAR text: UUDD 181430Z 18004MPS 150V210 9999 BKN020 20/15 Q1011 R88/70D NOSIG
Conditions at: UUDD (MOSCOW/DOMODEDOV, RU) observed 1430 UTC 18 August 2019
Temperature: 20.0°C (68°F)
Dewpoint: 15.0°C (59°F) [RH = 73%]
Pressure (altimeter): 29.85 inches Hg (1011.0 mb)
Winds: from the S (180 degrees) at 9 MPH (8 knots; 4.1 m/s)
Visibility: 6 or more miles (10+ km)
Ceiling: 2000 feet AGL
Clouds: broken clouds at 2000 feet AGL
Weather: no significant weather observed at this time

METAR text: UUDD 181400Z 18005MPS 9999 BKN040 20/14 Q1011 R88/CLRD70 NOSIG
Conditions at: UUDD (MOSCOW/DOMODEDOV, RU) observed 1400 UTC 18 August 2019
Temperature: 20.0°C (68°F)
Dewpoint: 14.0°C (57°F) [RH = 68%]
Pressure (altimeter): 29.85 inches Hg (1011.0 mb)
Winds: from the S (180 degrees) at 12 MPH (10 knots; 5.1 m/s)
Visibility: 6 or more miles (10+ km)
Ceiling: 4000 feet AGL
Clouds: broken clouds at 4000 feet AGL
Weather: no significant weather observed at this time

METAR text: UUDD 181330Z 19005MPS 9999 BKN043 20/14 Q1011 R88/70D NOSIG
Conditions at: UUDD (MOSCOW/DOMODEDOV, RU) observed 1330 UTC 18 August 2019
Temperature: 20.0°C (68°F)
Dewpoint: 14.0°C (57°F) [RH = 68%]
Pressure (altimeter): 29.85 inches Hg (1011.0 mb)
Winds: from the S (190 degrees) at 12 MPH (10 knots; 5.1 m/s)
Visibility: 6 or more miles (10+ km)
Ceiling: 4300 feet AGL
Clouds: broken clouds at 4300 feet AGL
Weather: no significant weather observed at this time

METAR text: UUDD 181300Z 18006MPS 9999 BKN043 20/14 Q1010 R88/70D NOSIG
Conditions at: UUDD (MOSCOW/DOMODEDOV, RU) observed 1300 UTC 18 August 2019
Temperature: 20.0°C (68°F)
Dewpoint: 14.0°C (57°F) [RH = 68%]
Pressure (altimeter): 29.82 inches Hg (1010.0 mb)
Winds: from the S (180 degrees) at 14 MPH (12 knots; 6.2 m/s)
Visibility: 6 or more miles (10+ km)
Ceiling: 4300 feet AGL
Clouds: broken clouds at 4300 feet AGL
Weather: no significant weather observed at this time

METAR text: UUDD 181230Z 18006MPS 9999 BKN033 21/15 Q1010 R88/CLRD70 NOSIG
Conditions at: UUDD (MOSCOW/DOMODEDOV, RU) observed 1230 UTC 18 August 2019
Temperature: 21.0°C (70°F)
Dewpoint: 15.0°C (59°F) [RH = 69%]
Pressure (altimeter): 29.82 inches Hg (1010.0 mb)
Winds: from the S (180 degrees) at 14 MPH (12 knots; 6.2 m/s)
Visibility: 6 or more miles (10+ km)
Ceiling: 3300 feet AGL
Clouds: broken clouds at 3300 feet AGL
Weather: no significant weather observed at this time

METAR text: UUDD 181200Z 17007MPS 9999 BKN025 21/15 Q1010 R88/70D NOSIG
Conditions at: UUDD (MOSCOW/DOMODEDOV, RU) observed 1200 UTC 18 August 2019
Temperature: 21.0°C (70°F)
Dewpoint: 15.0°C (59°F) [RH = 69%]
Pressure (altimeter): 29.82 inches Hg (1010.0 mb)
Winds: from the S (170 degrees) at 16 MPH (14 knots; 7.2 m/s)
Visibility: 6 or more miles (10+ km)
Ceiling: 2500 feet AGL
Clouds: broken clouds at 2500 feet AGL
Weather: no significant weather observed at this time

METAR text: UUDD 181130Z 16007MPS 130V200 9999 BKN030 22/15 Q1010 R14R/190060 R14L/CLRD70 NOSIG
Conditions at: UUDD (MOSCOW/DOMODEDOV, RU) observed 1130 UTC 18 August 2019
Temperature: 22.0°C (72°F)
Dewpoint: 15.0°C (59°F) [RH = 65%]
Pressure (altimeter): 29.82 inches Hg (1010.0 mb)
Winds: from the SSE (160 degrees) at 16 MPH (14 knots; 7.2 m/s)
Visibility: 6 or more miles (10+ km)
Ceiling: 3000 feet AGL
Clouds: broken clouds at 3000 feet AGL
Weather: no significant weather observed at this time

METAR text: UUDD 181100Z 17007MPS 9999 BKN030 22/15 Q1009 R14R/190060 R14L/CLRD70 NOSIG
Conditions at: UUDD (MOSCOW/DOMODEDOV, RU) observed 1100 UTC 18 August 2019
Temperature: 22.0°C (72°F)
Dewpoint: 15.0°C (59°F) [RH = 65%]
Pressure (altimeter): 29.79 inches Hg (1009.0 mb)
Winds: from the S (170 degrees) at 16 MPH (14 knots; 7.2 m/s)
Visibility: 6 or more miles (10+ km)
Ceiling: 3000 feet AGL
Clouds: broken clouds at 3000 feet AGL
Weather: no significant weather observed at this time

METAR text: UUDD 181030Z 17006MPS 9999 BKN040 21/16 Q1009 R14R/190060 R14L/CLRD70 NOSIG
Conditions at: UUDD (MOSCOW/DOMODEDOV, RU) observed 1030 UTC 18 August 2019
Temperature: 21.0°C (70°F)
Dewpoint: 16.0°C (61°F) [RH = 73%]
Pressure (altimeter): 29.79 inches Hg (1009.0 mb)
Winds: from the S (170 degrees) at 14 MPH (12 knots; 6.2 m/s)
Visibility: 6 or more miles (10+ km)
Ceiling: 4000 feet AGL
Clouds: broken clouds at 4000 feet AGL
Weather: no significant weather observed at this time

METAR text: UUDD 181000Z 18005MPS 9999 BKN019 21/16 Q1009 R14R/190060 R14L/CLRD70 NOSIG
Conditions at: UUDD (MOSCOW/DOMODEDOV, RU) observed 1000 UTC 18 August 2019
Temperature: 21.0°C (70°F)
Dewpoint: 16.0°C (61°F) [RH = 73%]
Pressure (altimeter): 29.79 inches Hg (1009.0 mb)
Winds: from the S (180 degrees) at 12 MPH (10 knots; 5.1 m/s)
Visibility: 6 or more miles (10+ km)
Ceiling: 1900 feet AGL
Clouds: broken clouds at 1900 feet AGL
Weather: no significant weather observed at this time

METAR text: UUDD 180930Z 19004MPS 150V240 9999 BKN018 21/17 Q1008 R14R/190060 R14L/CLRD70 NOSIG
Conditions at: UUDD (MOSCOW/DOMODEDOV, RU) observed 0930 UTC 18 August 2019
Temperature: 21.0°C (70°F)
Dewpoint: 17.0°C (63°F) [RH = 78%]
Pressure (altimeter): 29.76 inches Hg (1008.0 mb)
Winds: from the S (190 degrees) at 9 MPH (8 knots; 4.1 m/s)
Visibility: 6 or more miles (10+ km)
Ceiling: 1800 feet AGL
Clouds: broken clouds at 1800 feet AGL
Weather: no significant weather observed at this time

METAR text: UUDD 180900Z 18004MPS 150V240 9999 BKN015CB 19/16 Q1008 R88/190060 NOSIG
Conditions at: UUDD (MOSCOW/DOMODEDOV, RU) observed 0900 UTC 18 August 2019
Temperature: 19.0°C (66°F)
Dewpoint: 16.0°C (61°F) [RH = 83%]
Pressure (altimeter): 29.76 inches Hg (1008.0 mb)
Winds: from the S (180 degrees) at 9 MPH (8 knots; 4.1 m/s)
Visibility: 6 or more miles (10+ km)
Ceiling: 1500 feet AGL
Clouds: broken clouds at 1500 feet AGL
Weather: no significant weather observed at this time

METAR text: UUDD 180830Z 16005MPS 9999 BKN013 20/17 Q1008 R88/190060 NOSIG
Conditions at: UUDD (MOSCOW/DOMODEDOV, RU) observed 0830 UTC 18 August 2019
Temperature: 20.0°C (68°F)
Dewpoint: 17.0°C (63°F) [RH = 83%]
Pressure (altimeter): 29.76 inches Hg (1008.0 mb)
Winds: from the SSE (160 degrees) at 12 MPH (10 knots; 5.1 m/s)
Visibility: 6 or more miles (10+ km)
Ceiling: 1300 feet AGL
Clouds: broken clouds at 1300 feet AGL
Weather: no significant weather observed at this time

METAR text: UUDD 180800Z 17005MPS 9999 BKN011 20/17 Q1008 R88/190060 NOSIG
Conditions at: UUDD (MOSCOW/DOMODEDOV, RU) observed 0800 UTC 18 August 2019
Temperature: 20.0°C (68°F)
Dewpoint: 17.0°C (63°F) [RH = 83%]
Pressure (altimeter): 29.76 inches Hg (1008.0 mb)
Winds: from the S (170 degrees) at 12 MPH (10 knots; 5.1 m/s)
Visibility: 6 or more miles (10+ km)
Ceiling: 1100 feet AGL
Clouds: broken clouds at 1100 feet AGL
Weather: no significant weather observed at this time

METAR text: UUDD 180730Z 17005MPS 9999 SCT010 OVC024 19/17 Q1008 R88/190060 NOSIG
Conditions at: UUDD (MOSCOW/DOMODEDOV, RU) observed 0730 UTC 18 August 2019
Temperature: 19.0°C (66°F)
Dewpoint: 17.0°C (63°F) [RH = 88%]
Pressure (altimeter): 29.76 inches Hg (1008.0 mb)
Winds: from the S (170 degrees) at 12 MPH (10 knots; 5.1 m/s)
Visibility: 6 or more miles (10+ km)
Ceiling: 2400 feet AGL
Clouds: scattered clouds at 1000 feet AGL
overcast cloud deck at 2400 feet AGL
Weather: no significant weather observed at this time

METAR text: UUDD 180700Z 16005MPS 9999 BKN007 OVC020 19/16 Q1008 R88/190060 NOSIG
Conditions at: UUDD (MOSCOW/DOMODEDOV, RU) observed 0700 UTC 18 August 2019
Temperature: 19.0°C (66°F)
Dewpoint: 16.0°C (61°F) [RH = 83%]
Pressure (altimeter): 29.76 inches Hg (1008.0 mb)
Winds: from the SSE (160 degrees) at 12 MPH (10 knots; 5.1 m/s)
Visibility: 6 or more miles (10+ km)
Ceiling: 700 feet AGL
Clouds: broken clouds at 700 feet AGL
overcast cloud deck at 2000 feet AGL
Weather: no significant weather observed at this time

METAR text: UUDD 180630Z 15005MPS 9999 BKN007 OVC017 19/17 Q1007 R88/290042 NOSIG
Conditions at: UUDD (MOSCOW/DOMODEDOV, RU) observed 0630 UTC 18 August 2019
Temperature: 19.0°C (66°F)
Dewpoint: 17.0°C (63°F) [RH = 88%]
Pressure (altimeter): 29.73 inches Hg (1007.0 mb)
Winds: from the SSE (150 degrees) at 12 MPH (10 knots; 5.1 m/s)
Visibility: 6 or more miles (10+ km)
Ceiling: 700 feet AGL
Clouds: broken clouds at 700 feet AGL
overcast cloud deck at 1700 feet AGL
Weather: no significant weather observed at this time

METAR text: UUDD 180600Z 14005MPS 8000 BKN006 OVC016 18/16 Q1007 R88/290042 NOSIG
Conditions at: UUDD (MOSCOW/DOMODEDOV, RU) observed 0600 UTC 18 August 2019
Temperature: 18.0°C (64°F)
Dewpoint: 16.0°C (61°F) [RH = 88%]
Pressure (altimeter): 29.73 inches Hg (1007.0 mb)
Winds: from the SE (140 degrees) at 12 MPH (10 knots; 5.1 m/s)
Visibility: 5 miles ( 8 km)
Ceiling: 600 feet AGL
Clouds: broken clouds at 600 feet AGL
overcast cloud deck at 1600 feet AGL
Weather: no significant weather observed at this time

METAR text: UUDD 180530Z 14005MPS 8000 BKN006 OVC016 18/16 Q1007 R88/290042 NOSIG
Conditions at: UUDD (MOSCOW/DOMODEDOV, RU) observed 0530 UTC 18 August 2019
Temperature: 18.0°C (64°F)
Dewpoint: 16.0°C (61°F) [RH = 88%]
Pressure (altimeter): 29.73 inches Hg (1007.0 mb)
Winds: from the SE (140 degrees) at 12 MPH (10 knots; 5.1 m/s)
Visibility: 5 miles ( 8 km)
Ceiling: 600 feet AGL
Clouds: broken clouds at 600 feet AGL
overcast cloud deck at 1600 feet AGL
Weather: no significant weather observed at this time

METAR text: UUDD 180500Z 13005MPS 8000 BKN005 OVC016 18/16 Q1007 R88/290042 NOSIG
Conditions at: UUDD (MOSCOW/DOMODEDOV, RU) observed 0500 UTC 18 August 2019
Temperature: 18.0°C (64°F)
Dewpoint: 16.0°C (61°F) [RH = 88%]
Pressure (altimeter): 29.73 inches Hg (1007.0 mb)
Winds: from the SE (130 degrees) at 12 MPH (10 knots; 5.1 m/s)
Visibility: 5 miles ( 8 km)
Ceiling: 500 feet AGL
Clouds: broken clouds at 500 feet AGL
overcast cloud deck at 1600 feet AGL
Weather: no significant weather observed at this time

METAR text: UUDD 180430Z 13006MPS 8000 BKN005 OVC016 18/16 Q1007 R88/290042 NOSIG
Conditions at: UUDD (MOSCOW/DOMODEDOV, RU) observed 0430 UTC 18 August 2019
Temperature: 18.0°C (64°F)
Dewpoint: 16.0°C (61°F) [RH = 88%]
Pressure (altimeter): 29.73 inches Hg (1007.0 mb)
Winds: from the SE (130 degrees) at 14 MPH (12 knots; 6.2 m/s)
Visibility: 5 miles ( 8 km)
Ceiling: 500 feet AGL
Clouds: broken clouds at 500 feet AGL
overcast cloud deck at 1600 feet AGL
Weather: no significant weather observed at this time

METAR text: UUDD 180400Z 13005MPS 9999 BKN005 OVC016 18/16 Q1007 R14R/290042 NOSIG
Conditions at: UUDD (MOSCOW/DOMODEDOV, RU) observed 0400 UTC 18 August 2019
Temperature: 18.0°C (64°F)
Dewpoint: 16.0°C (61°F) [RH = 88%]
Pressure (altimeter): 29.73 inches Hg (1007.0 mb)
Winds: from the SE (130 degrees) at 12 MPH (10 knots; 5.1 m/s)
Visibility: 6 or more miles (10+ km)
Ceiling: 500 feet AGL
Clouds: broken clouds at 500 feet AGL
overcast cloud deck at 1600 feet AGL
Weather: no significant weather observed at this time

METAR text: UUDD 180330Z 13006MPS 9999 BKN005 OVC016 18/16 Q1007 R14R/290042 NOSIG
Conditions at: UUDD (MOSCOW/DOMODEDOV, RU) observed 0330 UTC 18 August 2019
Temperature: 18.0°C (64°F)
Dewpoint: 16.0°C (61°F) [RH = 88%]
Pressure (altimeter): 29.73 inches Hg (1007.0 mb)
Winds: from the SE (130 degrees) at 14 MPH (12 knots; 6.2 m/s)
Visibility: 6 or more miles (10+ km)
Ceiling: 500 feet AGL
Clouds: broken clouds at 500 feet AGL
overcast cloud deck at 1600 feet AGL
Weather: no significant weather observed at this time

METAR text: UUDD 180300Z 12006MPS 8000 BKN005 17/16 Q1007 R14R/290042 NOSIG
Conditions at: UUDD (MOSCOW/DOMODEDOV, RU) observed 0300 UTC 18 August 2019
Temperature: 17.0°C (63°F)
Dewpoint: 16.0°C (61°F) [RH = 94%]
Pressure (altimeter): 29.73 inches Hg (1007.0 mb)
Winds: from the ESE (120 degrees) at 14 MPH (12 knots; 6.2 m/s)
Visibility: 5 miles ( 8 km)
Ceiling: 500 feet AGL
Clouds: broken clouds at 500 feet AGL
Weather: no significant weather observed at this time

METAR text: UUDD 180230Z 13006MPS 5000 BR SCT005 BKN023 17/16 Q1007 R14R/290042 NOSIG
Conditions at: UUDD (MOSCOW/DOMODEDOV, RU) observed 0230 UTC 18 August 2019
Temperature: 17.0°C (63°F)
Dewpoint: 16.0°C (61°F) [RH = 94%]
Pressure (altimeter): 29.73 inches Hg (1007.0 mb)
Winds: from the SE (130 degrees) at 14 MPH (12 knots; 6.2 m/s)
Visibility: 3 miles ( 5 km)
Ceiling: 2300 feet AGL
Clouds: scattered clouds at 500 feet AGL
broken clouds at 2300 feet AGL
Weather: BR  (mist)

METAR text: UUDD 180200Z 11006MPS 080V140 4200 -SHRA SCT006 BKN023CB 17/16 Q1007 R14R/290042 NOSIG
Conditions at: UUDD (MOSCOW/DOMODEDOV, RU) observed 0200 UTC 18 August 2019
Temperature: 17.0°C (63°F)
Dewpoint: 16.0°C (61°F) [RH = 94%]
Pressure (altimeter): 29.73 inches Hg (1007.0 mb)
Winds: from the ESE (110 degrees) at 14 MPH (12 knots; 6.2 m/s)
Visibility: 2.61 miles (4.20 km)
Ceiling: 2300 feet AGL
Clouds: scattered clouds at 600 feet AGL
broken clouds at 2300 feet AGL
Weather: -SHRA  (light rain showers)

METAR text: UUDD 180130Z 11006MPS 5000 -SHRA SCT007 BKN023CB 17/16 Q1007 R14R/290042 NOSIG
Conditions at: UUDD (MOSCOW/DOMODEDOV, RU) observed 0130 UTC 18 August 2019
Temperature: 17.0°C (63°F)
Dewpoint: 16.0°C (61°F) [RH = 94%]
Pressure (altimeter): 29.73 inches Hg (1007.0 mb)
Winds: from the ESE (110 degrees) at 14 MPH (12 knots; 6.2 m/s)
Visibility: 3 miles ( 5 km)
Ceiling: 2300 feet AGL
Clouds: scattered clouds at 700 feet AGL
broken clouds at 2300 feet AGL
Weather: -SHRA  (light rain showers)

METAR text: UUDD 180100Z 11006MPS 9999 BKN020CB 17/16 Q1007 R14R/290042 NOSIG
Conditions at: UUDD (MOSCOW/DOMODEDOV, RU) observed 0100 UTC 18 August 2019
Temperature: 17.0°C (63°F)
Dewpoint: 16.0°C (61°F) [RH = 94%]
Pressure (altimeter): 29.73 inches Hg (1007.0 mb)
Winds: from the ESE (110 degrees) at 14 MPH (12 knots; 6.2 m/s)
Visibility: 6 or more miles (10+ km)
Ceiling: 2000 feet AGL
Clouds: broken clouds at 2000 feet AGL
Weather: no significant weather observed at this time

METAR text: UUDD 180030Z 10005MPS 8000 -SHRA FEW008 BKN036CB 17/16 Q1007 R14R/290042 NOSIG
Conditions at: UUDD (MOSCOW/DOMODEDOV, RU) observed 0030 UTC 18 August 2019
Temperature: 17.0°C (63°F)
Dewpoint: 16.0°C (61°F) [RH = 94%]
Pressure (altimeter): 29.73 inches Hg (1007.0 mb)
Winds: from the E (100 degrees) at 12 MPH (10 knots; 5.1 m/s)
Visibility: 5 miles ( 8 km)
Ceiling: 3600 feet AGL
Clouds: few clouds at 800 feet AGL
broken clouds at 3600 feet AGL
Weather: -SHRA  (light rain showers)

METAR text: UUDD 180000Z 09004MPS 040V120 9999 SCT002 BKN043 17/16 Q1007 R14R/290042 NOSIG
Conditions at: UUDD (MOSCOW/DOMODEDOV, RU) observed 0000 UTC 18 August 2019
Temperature: 17.0°C (63°F)
Dewpoint: 16.0°C (61°F) [RH = 94%]
Pressure (altimeter): 29.73 inches Hg (1007.0 mb)
Winds: from the E (90 degrees) at 9 MPH (8 knots; 4.1 m/s)
Visibility: 6 or more miles (10+ km)
Ceiling: 4300 feet AGL
Clouds: scattered clouds at 200 feet AGL
broken clouds at 4300 feet AGL
Weather: no significant weather observed at this time

METAR text: UUDD 172330Z 08004MPS 9999 SCT003 BKN040 16/15 Q1007 R14R/290042 NOSIG
Conditions at: UUDD (MOSCOW/DOMODEDOV, RU) observed 2330 UTC 17 August 2019
Temperature: 16.0°C (61°F)
Dewpoint: 15.0°C (59°F) [RH = 94%]
Pressure (altimeter): 29.73 inches Hg (1007.0 mb)
Winds: from the E (80 degrees) at 9 MPH (8 knots; 4.1 m/s)
Visibility: 6 or more miles (10+ km)
Ceiling: 4000 feet AGL
Clouds: scattered clouds at 300 feet AGL
broken clouds at 4000 feet AGL
Weather: no significant weather observed at this time

METAR text: UUDD 172300Z 07004MPS 040V100 9999 -SHRA SCT002 BKN023CB 16/15 Q1007 R14R/290042 NOSIG
Conditions at: UUDD (MOSCOW/DOMODEDOV, RU) observed 2300 UTC 17 August 2019
Temperature: 16.0°C (61°F)
Dewpoint: 15.0°C (59°F) [RH = 94%]
Pressure (altimeter): 29.73 inches Hg (1007.0 mb)
Winds: from the ENE (70 degrees) at 9 MPH (8 knots; 4.1 m/s)
Visibility: 6 or more miles (10+ km)
Ceiling: 2300 feet AGL
Clouds: scattered clouds at 200 feet AGL
broken clouds at 2300 feet AGL
Weather: -SHRA  (light rain showers)

METAR text: UUDD 172230Z 07003MPS 9999 -SHRA SCT002 BKN016CB 16/14 Q1007 R14R/290042 NOSIG
Conditions at: UUDD (MOSCOW/DOMODEDOV, RU) observed 2230 UTC 17 August 2019
Temperature: 16.0°C (61°F)
Dewpoint: 14.0°C (57°F) [RH = 88%]
Pressure (altimeter): 29.73 inches Hg (1007.0 mb)
Winds: from the ENE (70 degrees) at 7 MPH (6 knots; 3.1 m/s)
Visibility: 6 or more miles (10+ km)
Ceiling: 1600 feet AGL
Clouds: scattered clouds at 200 feet AGL
broken clouds at 1600 feet AGL
Weather: -SHRA  (light rain showers)

METAR text: UUDD 172200Z 06003MPS 030V090 9999 -SHRA SCT004 BKN018CB 16/14 Q1008 R14R/290042 NOSIG
Conditions at: UUDD (MOSCOW/DOMODEDOV, RU) observed 2200 UTC 17 August 2019
Temperature: 16.0°C (61°F)
Dewpoint: 14.0°C (57°F) [RH = 88%]
Pressure (altimeter): 29.76 inches Hg (1008.0 mb)
Winds: from the ENE (60 degrees) at 7 MPH (6 knots; 3.1 m/s)
Visibility: 6 or more miles (10+ km)
Ceiling: 1800 feet AGL
Clouds: scattered clouds at 400 feet AGL
broken clouds at 1800 feet AGL
Weather: -SHRA  (light rain showers)

METAR text: UUDD 172130Z 05004MPS 020V080 9000 -SHRA SCT003 BKN018CB 16/14 Q1008 R14R/290042 NOSIG
Conditions at: UUDD (MOSCOW/DOMODEDOV, RU) observed 2130 UTC 17 August 2019
Temperature: 16.0°C (61°F)
Dewpoint: 14.0°C (57°F) [RH = 88%]
Pressure (altimeter): 29.76 inches Hg (1008.0 mb)
Winds: from the NE (50 degrees) at 9 MPH (8 knots; 4.1 m/s)
Visibility: 6 miles ( 9 km)
Ceiling: 1800 feet AGL
Clouds: scattered clouds at 300 feet AGL
broken clouds at 1800 feet AGL
Weather: -SHRA  (light rain showers)

METAR text: UUDD 172100Z 03006MPS 8000 -RA BKN003 OVC013 16/14 Q1008 R88/290042 NOSIG
Conditions at: UUDD (MOSCOW/DOMODEDOV, RU) observed 2100 UTC 17 August 2019
Temperature: 16.0°C (61°F)
Dewpoint: 14.0°C (57°F) [RH = 88%]
Pressure (altimeter): 29.76 inches Hg (1008.0 mb)
Winds: from the NNE (30 degrees) at 14 MPH (12 knots; 6.2 m/s)
Visibility: 5 miles ( 8 km)
Ceiling: 300 feet AGL
Clouds: broken clouds at 300 feet AGL
overcast cloud deck at 1300 feet AGL
Weather: -RA  (light rain)

METAR text: UUDD 172030Z 03005MPS 2900 -RA BKN003 OVC013 16/14 Q1008 WS R14R R88/290042 NOSIG
Conditions at: UUDD (MOSCOW/DOMODEDOV, RU) observed 2030 UTC 17 August 2019
Temperature: 16.0°C (61°F)
Dewpoint: 14.0°C (57°F) [RH = 88%]
Pressure (altimeter): 29.76 inches Hg (1008.0 mb)
Winds: from the NNE (30 degrees) at 12 MPH (10 knots; 5.1 m/s)
Visibility: 1.80 miles (2.90 km)
Ceiling: 300 feet AGL
Clouds: broken clouds at 300 feet AGL
overcast cloud deck at 1300 feet AGL
Weather: -RA  (light rain)

METAR text: UUDD 172000Z 03006MPS 8000 -RA BKN003 OVC013 16/14 Q1009 R88/290042 NOSIG
Conditions at: UUDD (MOSCOW/DOMODEDOV, RU) observed 2000 UTC 17 August 2019
Temperature: 16.0°C (61°F)
Dewpoint: 14.0°C (57°F) [RH = 88%]
Pressure (altimeter): 29.79 inches Hg (1009.0 mb)
Winds: from the NNE (30 degrees) at 14 MPH (12 knots; 6.2 m/s)
Visibility: 5 miles ( 8 km)
Ceiling: 300 feet AGL
Clouds: broken clouds at 300 feet AGL
overcast cloud deck at 1300 feet AGL
Weather: -RA  (light rain)

METAR text: UUDD 171930Z 03005MPS 9999 -RA BKN003 OVC013 16/14 Q1009 R88/290042 NOSIG
Conditions at: UUDD (MOSCOW/DOMODEDOV, RU) observed 1930 UTC 17 August 2019
Temperature: 16.0°C (61°F)
Dewpoint: 14.0°C (57°F) [RH = 88%]
Pressure (altimeter): 29.79 inches Hg (1009.0 mb)
Winds: from the NNE (30 degrees) at 12 MPH (10 knots; 5.1 m/s)
Visibility: 6 or more miles (10+ km)
Ceiling: 300 feet AGL
Clouds: broken clouds at 300 feet AGL
overcast cloud deck at 1300 feet AGL
Weather: -RA  (light rain)

METAR text: UUDD 171900Z 03005MPS 8000 -RA BKN002 OVC010 16/14 Q1010 R88/290042 NOSIG
Conditions at: UUDD (MOSCOW/DOMODEDOV, RU) observed 1900 UTC 17 August 2019
Temperature: 16.0°C (61°F)
Dewpoint: 14.0°C (57°F) [RH = 88%]
Pressure (altimeter): 29.82 inches Hg (1010.0 mb)
Winds: from the NNE (30 degrees) at 12 MPH (10 knots; 5.1 m/s)
Visibility: 5 miles ( 8 km)
Ceiling: 200 feet AGL
Clouds: broken clouds at 200 feet AGL
overcast cloud deck at 1000 feet AGL
Weather: -RA  (light rain)

METAR text: UUDD 171830Z 04005MPS 360V060 9000 -RA BKN002 OVC010 16/14 Q1010 R88/290042 NOSIG RMK QBB060
Conditions at: UUDD (MOSCOW/DOMODEDOV, RU) observed 1830 UTC 17 August 2019
Temperature: 16.0°C (61°F)
Dewpoint: 14.0°C (57°F) [RH = 88%]
Pressure (altimeter): 29.82 inches Hg (1010.0 mb)
Winds: from the NE (40 degrees) at 12 MPH (10 knots; 5.1 m/s)
Visibility: 6 miles ( 9 km)
Ceiling: 200 feet AGL
Clouds: broken clouds at 200 feet AGL
overcast cloud deck at 1000 feet AGL
Weather: -RA  (light rain)

METAR text: UUDD 171800Z 04004MPS 020V080 9000 -RA BKN002 OVC016 16/14 Q1011 R88/290042 NOSIG RMK QBB060
Conditions at: UUDD (MOSCOW/DOMODEDOV, RU) observed 1800 UTC 17 August 2019
Temperature: 16.0°C (61°F)
Dewpoint: 14.0°C (57°F) [RH = 88%]
Pressure (altimeter): 29.85 inches Hg (1011.0 mb)
Winds: from the NE (40 degrees) at 9 MPH (8 knots; 4.1 m/s)
Visibility: 6 miles ( 9 km)
Ceiling: 200 feet AGL
Clouds: broken clouds at 200 feet AGL
overcast cloud deck at 1600 feet AGL
Weather: -RA  (light rain)

METAR text: UUDD 171730Z 04005MPS 020V080 9999 OVC002 16/14 Q1011 R88/290042 NOSIG
Conditions at: UUDD (MOSCOW/DOMODEDOV, RU) observed 1730 UTC 17 August 2019
Temperature: 16.0°C (61°F)
Dewpoint: 14.0°C (57°F) [RH = 88%]
Pressure (altimeter): 29.85 inches Hg (1011.0 mb)
Winds: from the NE (40 degrees) at 12 MPH (10 knots; 5.1 m/s)
Visibility: 6 or more miles (10+ km)
Ceiling: 200 feet AGL
Clouds: overcast cloud deck at 200 feet AGL
Weather: no significant weather observed at this time

METAR text: UUDD 171700Z 05005MPS 9999 -RA BKN003 16/14 Q1011 RERA R88/290042 NOSIG
Conditions at: UUDD (MOSCOW/DOMODEDOV, RU) observed 1700 UTC 17 August 2019
Temperature: 16.0°C (61°F)
Dewpoint: 14.0°C (57°F) [RH = 88%]
Pressure (altimeter): 29.85 inches Hg (1011.0 mb)
Winds: from the NE (50 degrees) at 12 MPH (10 knots; 5.1 m/s)
Visibility: 6 or more miles (10+ km)
Ceiling: 300 feet AGL
Clouds: broken clouds at 300 feet AGL
Weather: -RA  (light rain)

METAR text: UUDD 171630Z 05006MPS 8000 -RA BKN003 16/15 Q1011 R88/290042 NOSIG
Conditions at: UUDD (MOSCOW/DOMODEDOV, RU) observed 1630 UTC 17 August 2019
Temperature: 16.0°C (61°F)
Dewpoint: 15.0°C (59°F) [RH = 94%]
Pressure (altimeter): 29.85 inches Hg (1011.0 mb)
Winds: from the NE (50 degrees) at 14 MPH (12 knots; 6.2 m/s)
Visibility: 5 miles ( 8 km)
Ceiling: 300 feet AGL
Clouds: broken clouds at 300 feet AGL
Weather: -RA  (light rain)

Forecast for: UUDD (MOSCOW/DOMODEDOV, RU)
Text: TAF UUDD 190156Z 1903/2009 26003G08MPS 9999 OVC006 TX23/1912Z TN12/2002Z
Forecast period: 0300 to 0700 UTC 19 August 2019
Forecast type: FROM: standard forecast or significant change
Winds: from the W (260 degrees) at 7 MPH (6 knots; 3.1 m/s)
gusting to 18 MPH (16 knots; 8.2 m/s)
Visibility: 6 or more miles 10+ km)
Ceiling: 600 feet AGL
Clouds: overcast cloud deck at 600 feet AGL
Weather: no significant weather forecast for this period
Text: TEMPO 1903/1906 3100 -DZ BR FEW002 OVC003
Forecast period: 0300 to 0600 UTC 19 August 2019
Forecast type: TEMPORARY: The following changes expected for less than half the time period
Visibility: 1.93 miles (3.11 km)
Ceiling: 300 feet AGL
Clouds: few clouds at 200 feet AGL
overcast cloud deck at 300 feet AGL
Weather: -DZ BR  (light drizzle, mist)
Text: BECMG 1907/1909 BKN012
Forecast period: 0700 to 1700 UTC 19 August 2019
Forecast type: BECOMING: Conditions expected to become as follows by 0900 UTC 19 August 2019
Winds: from the W (260 degrees) at 7 MPH (6 knots; 3.1 m/s)
gusting to 18 MPH (16 knots; 8.2 m/s)
Visibility: 6 or more miles 10+ km)
Ceiling: 1200 feet AGL
Clouds: broken clouds at 1200 feet AGL
Weather: no significant weather forecast for this period
Text: FM191700 22002MPS 4000 BR FEW004
Forecast period: 1700 UTC 19 August 2019 to 0400 UTC 20 August 2019
Forecast type: FROM: standard forecast or significant change
Winds: from the SW (220 degrees) at 5 MPH (4 knots; 2.1 m/s)
Visibility: 2.49 miles (4.01 km)
Ceiling: at least 12,000 feet AGL
Clouds: few clouds at 400 feet AGL
Weather: BR  (mist)
Text: PROB40
Forecast period: 1700 UTC 19 August 2019 to 0400 UTC 20 August 2019
Forecast type: TEMPORARY: The following changes expected for less than half the time period
Visibility: 0.19 miles (0.31 km)
Ceiling: unknown
Clouds: missing
Weather: FG  (fog)
Text: TEMPO 1917/2004 0300 FG
Forecast period: 0400 to 0900 UTC 20 August 2019
Forecast type: BECOMING: Conditions expected to become as follows by 0600 UTC 20 August 2019
Winds: from the SW (220 degrees) at 5 MPH (4 knots; 2.1 m/s)
Visibility: 6 or more miles 10+ km)
Ceiling: at least 12,000 feet AGL
Clouds: scattered clouds at 3000 feet AGL
Weather: NSW  (no significant weather)